createdAt,value
2017-06-28T00:13:02.250Z,53.38
2017-06-28T00:15:34.223Z,53.15
2017-06-28T00:18:09.828Z,53.24
2017-06-28T00:20:42.710Z,53.38
2017-06-28T00:23:19.106Z,53.30
2017-06-28T00:25:52.076Z,53.33
2017-06-28T00:28:26.274Z,53.30
2017-06-28T11:56:12.411Z,55.50
2017-06-28T11:58:42.396Z,55.03
2017-06-28T12:01:11.286Z,55.27
2017-06-28T12:03:40.281Z,55.60
2017-06-28T12:06:09.073Z,54.73
2017-06-28T12:08:39.805Z,55.01
2017-06-28T12:11:10.022Z,56.33
2017-06-28T14:27:36.511Z,52.12
2017-06-28T14:30:05.487Z,51.56
2017-06-28T14:32:37.398Z,52.43
2017-06-28T14:35:07.139Z,52.51
2017-06-28T14:37:37.675Z,52.48
2017-06-28T14:40:10.676Z,52.39
2017-06-28T14:42:45.720Z,52.24
2017-06-28T14:45:22.119Z,52.64
2017-06-28T14:47:53.295Z,52.13
2017-06-28T14:50:27.409Z,52.01
2017-06-28T14:52:57.427Z,52.15
2017-06-28T14:55:30.832Z,51.80
2017-06-28T14:58:05.447Z,51.99
2017-06-28T15:00:34.552Z,51.71
2017-06-28T15:03:07.435Z,51.99
2017-06-28T15:05:40.632Z,52.14
2017-06-28T15:08:17.197Z,52.33
2017-06-28T15:10:52.214Z,52.58
2017-06-28T15:13:25.219Z,52.74
2017-06-28T15:15:58.092Z,52.83
2017-06-28T15:18:33.450Z,52.89
2017-06-28T15:21:09.074Z,53.34
2017-06-28T15:23:43.369Z,53.49
2017-06-28T15:26:17.087Z,53.71
2017-06-28T15:28:52.307Z,53.98
2017-06-28T15:31:31.276Z,54.08
2017-06-28T15:34:05.986Z,54.27
2017-06-28T15:36:41.218Z,54.46
2017-06-28T15:39:16.967Z,54.64
2017-06-28T15:41:52.176Z,54.70
2017-06-28T15:44:23.957Z,54.77
2017-06-28T15:46:59.198Z,54.74
2017-06-28T15:49:34.541Z,54.80
2017-06-28T15:52:12.238Z,54.90
2017-06-28T15:54:51.992Z,54.90
2017-06-28T15:57:25.960Z,54.85
2017-06-28T16:00:01.927Z,54.90
2017-06-28T16:02:35.902Z,54.91
2017-06-28T16:05:09.246Z,54.93
2017-06-28T16:07:44.376Z,55.08
2017-06-28T16:10:15.722Z,55.26
2017-06-28T16:12:49.635Z,55.22
2017-06-28T16:15:23.335Z,55.21
2017-06-28T16:17:57.711Z,55.16
2017-06-28T16:20:33.681Z,55.11
2017-06-28T16:23:08.647Z,55.60
2017-06-28T16:25:44.288Z,55.87
2017-06-28T16:28:21.678Z,56.42
2017-06-28T16:30:54.870Z,56.26
2017-06-28T16:33:33.078Z,56.33
2017-06-28T16:36:09.489Z,56.21
2017-06-28T16:38:43.458Z,56.33
2017-06-28T16:41:17.253Z,56.24
2017-06-28T16:43:49.211Z,56.41
2017-06-28T16:46:24.147Z,56.48
2017-06-28T16:48:54.874Z,56.08
2017-06-28T16:51:25.507Z,55.72
2017-06-28T16:54:00.947Z,55.31
2017-06-28T16:56:35.777Z,55.06
2017-06-28T16:59:11.731Z,54.89
2017-06-28T17:01:46.176Z,54.71
2017-06-28T17:04:19.960Z,54.51
2017-06-28T17:06:56.528Z,54.60
2017-06-28T17:09:30.432Z,54.48
2017-06-28T17:12:04.956Z,54.38
2017-06-28T17:14:37.126Z,54.23
2017-06-28T17:17:07.989Z,54.06
2017-06-28T17:19:41.458Z,53.96
2017-06-28T17:22:14.749Z,53.91
2017-06-28T17:24:49.580Z,53.86
2017-06-28T17:27:26.868Z,53.80
2017-06-28T17:30:01.878Z,53.75
2017-06-28T17:32:38.800Z,53.71
2017-06-28T17:35:11.888Z,53.64
2017-06-28T17:37:47.504Z,53.57
2017-06-28T17:40:19.734Z,53.56
2017-06-28T17:42:53.677Z,53.55
2017-06-28T17:45:28.610Z,53.52
2017-06-28T17:48:02.418Z,53.48
2017-06-28T17:50:36.584Z,53.42
2017-06-28T17:53:10.578Z,53.36
2017-06-28T17:55:43.523Z,53.34
2017-06-28T17:58:19.274Z,53.28
2017-06-28T18:00:54.413Z,53.17
2017-06-28T18:03:29.435Z,53.22
2017-06-28T18:06:02.397Z,53.15
2017-06-28T18:08:36.983Z,53.11
2017-06-28T18:11:12.289Z,53.03
2017-06-28T18:13:46.809Z,53.03
2017-06-28T18:16:21.153Z,52.97
2017-06-28T18:18:54.827Z,52.89
2017-06-28T18:21:28.208Z,52.91
2017-06-28T18:24:03.465Z,52.84
2017-06-28T18:26:37.300Z,52.82
2017-06-28T18:29:15.064Z,52.87
2017-06-28T18:31:49.124Z,52.84
2017-06-28T18:34:21.546Z,52.81
2017-06-28T18:36:57.203Z,52.77
2017-06-28T18:39:31.988Z,52.74
2017-06-28T18:42:08.392Z,52.75
2017-06-28T18:44:38.928Z,52.72
2017-06-28T18:47:13.232Z,52.63
2017-06-28T18:49:48.863Z,52.60
2017-06-28T18:52:21.456Z,52.57
2017-06-28T18:54:56.804Z,52.56
2017-06-28T18:57:29.771Z,52.56
2017-06-28T19:00:05.745Z,52.54
2017-06-28T19:02:37.696Z,52.52
2017-06-28T19:05:12.678Z,52.49
2017-06-28T19:07:43.158Z,52.48
2017-06-28T19:10:16.454Z,52.43
2017-06-28T19:12:50.764Z,52.43
2017-06-28T19:15:24.056Z,52.42
2017-06-28T19:17:58.072Z,52.40
2017-06-28T19:20:35.495Z,52.36
2017-06-28T19:23:09.567Z,52.38
2017-06-28T19:25:41.229Z,52.38
2017-06-28T19:28:18.815Z,52.38
2017-06-28T19:30:54.974Z,52.35
2017-06-28T19:33:27.553Z,52.38
2017-06-28T19:36:01.764Z,52.38
2017-06-28T19:38:35.276Z,52.37
2017-06-28T19:41:07.841Z,52.35
2017-06-28T19:43:43.267Z,52.34
2017-06-28T19:46:14.660Z,52.35
2017-06-28T19:48:52.215Z,52.39
2017-06-28T19:51:24.287Z,52.39
2017-06-28T19:54:02.491Z,52.41
2017-06-28T19:56:41.214Z,52.44
2017-06-28T19:59:15.735Z,52.46
2017-06-28T20:01:52.101Z,52.46
2017-06-28T20:04:28.961Z,52.45
2017-06-28T20:07:05.341Z,52.49
2017-06-28T20:09:39.898Z,52.46
2017-06-28T20:12:29.865Z,52.51
2017-06-28T20:15:02.123Z,52.52
2017-06-28T20:17:35.208Z,52.53
2017-06-28T20:20:09.782Z,52.54
2017-06-28T20:22:44.354Z,52.54
2017-06-28T20:25:18.254Z,52.54
2017-06-28T20:27:55.031Z,52.58
2017-06-28T20:30:27.501Z,52.60
2017-06-28T20:33:04.172Z,52.62
2017-06-28T20:35:40.586Z,52.58
2017-06-28T20:38:17.551Z,52.60
2017-06-28T20:40:51.114Z,52.63
2017-06-28T20:43:21.645Z,52.63
2017-06-28T20:45:58.313Z,52.62
2017-06-28T20:48:32.019Z,52.61
2017-06-28T20:51:08.080Z,52.58
2017-06-28T20:53:44.363Z,52.58
2017-06-28T20:56:18.706Z,52.61
2017-06-28T20:58:53.301Z,52.62
2017-06-28T21:01:26.781Z,52.61
2017-06-28T21:03:58.309Z,52.59
2017-06-28T21:06:31.640Z,52.58
2017-06-28T21:09:08.701Z,52.59
2017-06-28T21:11:42.102Z,52.62
2017-06-28T21:14:13.749Z,52.64
2017-06-28T21:16:44.480Z,52.64
2017-06-28T21:19:15.214Z,52.66
2017-06-28T21:21:49.941Z,52.65
2017-06-28T21:24:22.822Z,52.63
2017-06-28T21:27:00.964Z,52.62
2017-06-28T21:29:35.974Z,52.59
2017-06-28T21:32:07.898Z,52.54
2017-06-28T21:34:40.869Z,52.54
2017-06-28T21:37:17.791Z,52.56
2017-06-28T21:39:55.444Z,52.56
2017-06-28T21:42:31.537Z,52.61
2017-06-28T21:45:05.760Z,52.63
2017-06-28T21:47:40.582Z,52.64
2017-06-28T21:50:18.173Z,52.69
2017-06-28T21:52:50.958Z,52.69
2017-06-28T21:55:26.617Z,52.73
2017-06-28T21:57:59.690Z,52.72
2017-06-28T22:00:30.560Z,52.76
2017-06-28T22:03:03.524Z,52.79
2017-06-28T22:05:40.080Z,52.81
2017-06-28T22:08:13.580Z,52.88
2017-06-28T22:10:45.643Z,52.90
2017-06-28T22:33:32.516Z,53.08
2017-06-28T22:36:07.302Z,53.15
2017-06-28T22:38:41.093Z,53.15
2017-06-28T22:41:16.061Z,53.15
2017-06-28T22:43:49.742Z,53.17
2017-06-28T22:46:25.904Z,53.21
2017-06-28T22:49:03.287Z,53.46
2017-06-28T22:51:37.212Z,53.33
2017-06-28T22:54:12.022Z,53.30
2017-06-28T22:56:45.906Z,53.29
2017-06-28T22:59:19.430Z,53.31
2017-06-28T23:01:51.812Z,53.34
2017-06-28T23:04:23.453Z,53.33
2017-06-28T23:06:53.985Z,53.35
2017-06-28T23:09:28.299Z,53.33
2017-06-28T23:12:03.238Z,53.47
2017-06-28T23:14:35.680Z,53.43
2017-06-28T23:17:10.942Z,53.43
2017-06-28T23:19:47.593Z,53.40
2017-06-28T23:22:25.924Z,53.41
2017-06-28T23:25:00.529Z,53.41
2017-06-28T23:27:35.498Z,53.47
2017-06-28T23:30:06.470Z,53.43
2017-06-28T23:32:42.178Z,53.47
2017-06-28T23:35:17.503Z,53.49
